createdAt,value
2022-11-04T00:00:30.444Z,14.82
2022-11-04T00:01:04.303Z,14.40
2022-11-04T00:01:40.822Z,11.93
2022-11-04T00:02:13.559Z,12.30
2022-11-04T00:02:46.108Z,11.63
2022-11-04T00:03:18.794Z,12.98
2022-11-04T00:03:52.177Z,14.52
2022-11-04T00:04:26.153Z,18.00
2022-11-04T00:04:59.190Z,13.10
2022-11-04T00:05:31.988Z,16.88
2022-11-04T00:06:04.620Z,16.23
2022-11-04T00:06:37.874Z,27.63
2022-11-04T00:07:30.292Z,17.55
2022-11-04T00:08:21.013Z,27.45
2022-11-04T00:08:54.606Z,44.20
2022-11-04T00:09:28.632Z,15.57
2022-11-04T00:10:01.004Z,33.35
2022-11-04T00:10:52.149Z,15.07
2022-11-04T00:11:43.962Z,13.45
2022-11-04T00:12:25.554Z,37.40
2022-11-04T00:12:58.385Z,23.13
2022-11-04T00:13:30.852Z,14.98
2022-11-04T00:14:03.961Z,30.63
2022-11-04T00:14:36.677Z,12.88
2022-11-04T00:15:27.726Z,11.68
2022-11-04T00:16:21.632Z,33.78
2022-11-04T00:17:12.654Z,11.02
2022-11-04T00:17:45.107Z,39.00
2022-11-04T00:18:17.864Z,23.52
2022-11-04T00:18:51.233Z,22.70
2022-11-04T00:19:24.253Z,44.15
2022-11-04T00:20:15.197Z,42.55
2022-11-04T00:21:05.765Z,36.55
2022-11-04T00:21:56.561Z,37.22
2022-11-04T00:22:47.741Z,34.40
2022-11-04T00:23:38.459Z,20.96
2022-11-04T00:24:30.375Z,12.70
2022-11-04T00:25:21.147Z,45.13
2022-11-04T00:26:12.324Z,45.62
2022-11-04T00:27:03.129Z,25.55
2022-11-04T00:27:53.881Z,31.68
2022-11-04T00:28:44.709Z,16.58
2022-11-04T00:29:17.053Z,11.04
2022-11-04T00:29:49.686Z,12.45
2022-11-04T00:30:22.492Z,23.88
2022-11-04T00:30:56.008Z,26.33
2022-11-04T00:31:47.125Z,9.43
2022-11-04T00:32:38.453Z,19.48
2022-11-04T00:33:26.098Z,14.30
2022-11-04T00:33:58.982Z,40.92
2022-11-04T00:34:31.360Z,50.53
2022-11-04T00:35:03.881Z,17.15
2022-11-04T00:35:36.401Z,11.77
2022-11-04T00:36:08.989Z,9.75
2022-11-04T00:36:41.633Z,10.52
2022-11-04T00:37:13.998Z,19.77
2022-11-04T00:37:46.426Z,18.00
2022-11-04T00:38:18.989Z,10.52
2022-11-04T00:38:51.619Z,16.08
2022-11-04T00:39:24.090Z,12.88
2022-11-04T00:39:56.452Z,10.48
2022-11-04T00:40:29.057Z,13.10
2022-11-04T00:41:01.524Z,20.63
2022-11-04T00:41:34.390Z,10.15
2022-11-04T00:42:06.885Z,10.88
2022-11-04T00:42:39.443Z,34.10
2022-11-04T00:43:12.099Z,11.38
2022-11-04T00:43:45.376Z,12.27
2022-11-04T00:44:17.997Z,19.55
2022-11-04T00:44:51.021Z,11.18
2022-11-04T00:45:23.631Z,20.55
2022-11-04T00:45:56.084Z,9.25
2022-11-04T00:46:29.281Z,23.17
2022-11-04T00:47:01.677Z,17.77
2022-11-04T00:47:34.271Z,10.82
2022-11-04T00:48:06.957Z,10.63
2022-11-04T00:48:39.607Z,12.50
2022-11-04T00:49:13.677Z,10.82
2022-11-04T00:49:46.196Z,9.30
2022-11-04T00:50:19.813Z,15.75
2022-11-04T00:50:52.177Z,17.50
2022-11-04T00:51:24.768Z,12.82
2022-11-04T00:51:57.350Z,10.02
2022-11-04T00:52:30.242Z,10.77
2022-11-04T00:53:03.183Z,10.48
2022-11-04T00:53:35.706Z,11.55
2022-11-04T00:54:08.323Z,12.02
2022-11-04T00:54:40.866Z,17.17
2022-11-04T00:55:13.356Z,9.35
2022-11-04T00:55:45.890Z,17.50
2022-11-04T00:56:18.281Z,25.50
2022-11-04T00:56:50.818Z,11.35
2022-11-04T00:57:23.175Z,11.95
2022-11-04T00:57:56.103Z,10.70
2022-11-04T00:58:29.258Z,12.73
2022-11-04T00:59:01.966Z,25.45
2022-11-04T00:59:34.626Z,36.53
2022-11-04T01:00:07.668Z,22.75
2022-11-04T01:00:41.202Z,18.30
2022-11-04T01:01:18.369Z,11.85
2022-11-04T01:01:51.261Z,10.45
2022-11-04T01:02:24.090Z,10.43
2022-11-04T01:02:57.036Z,11.42
2022-11-04T01:03:29.587Z,11.07
2022-11-04T01:04:02.209Z,11.65
2022-11-04T01:04:34.611Z,20.70
2022-11-04T01:05:07.200Z,11.38
2022-11-04T01:05:39.671Z,11.25
2022-11-04T01:06:12.177Z,9.45
2022-11-04T01:06:44.628Z,12.32
2022-11-04T01:07:17.275Z,34.72
2022-11-04T01:07:49.655Z,11.18
2022-11-04T01:08:22.087Z,28.05
2022-11-04T01:08:58.443Z,9.75
2022-11-04T01:09:31.283Z,10.23
2022-11-04T01:10:03.974Z,10.20
2022-11-04T01:10:36.858Z,10.90
2022-11-04T01:11:09.569Z,10.40
2022-11-04T01:11:42.237Z,18.73
2022-11-04T01:12:14.817Z,9.88
2022-11-04T01:12:47.461Z,17.13
2022-11-04T01:13:20.135Z,13.32
2022-11-04T01:13:53.257Z,12.07
2022-11-04T01:14:25.656Z,11.63
2022-11-04T01:14:58.194Z,10.88
2022-11-04T01:15:30.626Z,22.90
2022-11-04T01:16:04.060Z,9.13
2022-11-04T01:16:37.244Z,13.65
2022-11-04T01:17:09.685Z,15.55
2022-11-04T01:17:42.290Z,10.55
2022-11-04T01:18:14.794Z,20.33
2022-11-04T01:18:47.942Z,11.43
2022-11-04T01:19:20.351Z,30.15
2022-11-04T01:19:52.955Z,9.90
2022-11-04T01:20:25.476Z,8.30
2022-11-04T01:21:01.641Z,13.18
2022-11-04T01:21:34.667Z,10.70
2022-11-04T01:22:07.060Z,8.65
2022-11-04T01:22:39.460Z,15.13
2022-11-04T01:23:11.935Z,9.45
2022-11-04T01:23:45.222Z,15.63
2022-11-04T01:24:17.608Z,10.95
2022-11-04T01:24:49.951Z,10.95
2022-11-04T01:25:22.292Z,17.83
2022-11-04T01:25:54.643Z,8.98
2022-11-04T01:26:28.386Z,17.52
2022-11-04T01:27:00.967Z,14.98
2022-11-04T01:27:33.760Z,23.90
2022-11-04T01:28:06.708Z,13.70
2022-11-04T01:28:39.620Z,8.95
2022-11-04T01:29:11.910Z,13.10
2022-11-04T01:29:44.722Z,11.43
2022-11-04T01:30:17.312Z,10.73
2022-11-04T01:30:49.853Z,22.15
2022-11-04T01:31:23.775Z,9.75
2022-11-04T01:31:56.129Z,15.65
2022-11-04T01:32:28.703Z,11.00
2022-11-04T01:33:00.982Z,24.73
2022-11-04T01:33:33.381Z,13.55
2022-11-04T01:34:06.087Z,21.15
2022-11-04T01:34:42.438Z,10.20
2022-11-04T01:35:16.464Z,20.33
2022-11-04T01:35:49.256Z,17.23
2022-11-04T01:36:22.435Z,16.77
2022-11-04T01:36:54.908Z,9.40
2022-11-04T01:37:27.527Z,9.27
2022-11-04T01:38:00.090Z,10.25
2022-11-04T01:38:32.696Z,35.33
2022-11-04T01:39:06.054Z,9.65
2022-11-04T01:39:38.734Z,14.75
2022-11-04T01:40:11.358Z,35.55
2022-11-04T01:40:43.898Z,24.58
2022-11-04T01:41:20.892Z,18.52
2022-11-04T01:41:53.741Z,12.43
2022-11-04T01:42:26.529Z,13.88
2022-11-04T01:42:58.974Z,16.77
2022-11-04T01:43:46.794Z,21.13
2022-11-04T01:44:37.894Z,18.20
2022-11-04T01:45:15.061Z,31.63
2022-11-04T01:45:59.026Z,8.52
2022-11-04T01:46:38.999Z,19.40
2022-11-04T01:47:46.585Z,64.15
2022-11-04T01:48:22.627Z,10.55
2022-11-04T01:48:57.554Z,37.95
2022-11-04T01:49:40.769Z,11.40
2022-11-04T01:50:24.905Z,13.82
2022-11-04T01:50:58.015Z,12.73
2022-11-04T01:51:33.017Z,15.45
2022-11-04T01:52:14.277Z,29.50
2022-11-04T01:52:49.769Z,34.90
2022-11-04T01:53:24.276Z,14.43
2022-11-04T01:53:56.886Z,22.73
2022-11-04T01:54:30.091Z,14.50
2022-11-04T01:55:04.175Z,20.48
2022-11-04T01:55:40.834Z,13.65
2022-11-04T01:56:14.668Z,24.60
2022-11-04T01:56:48.854Z,15.07
2022-11-04T01:57:25.622Z,20.52
2022-11-04T01:58:01.597Z,14.02
2022-11-04T01:58:35.370Z,13.45
2022-11-04T01:59:09.417Z,23.02
2022-11-04T01:59:41.918Z,13.90
2022-11-04T02:00:16.001Z,12.00
2022-11-04T02:00:48.682Z,11.78
2022-11-04T02:01:21.305Z,14.63
2022-11-04T02:01:54.582Z,18.77
2022-11-04T02:02:27.483Z,27.95
2022-11-04T02:03:02.121Z,15.85
2022-11-04T02:03:36.860Z,15.13
2022-11-04T02:04:27.793Z,13.50
2022-11-04T02:05:00.313Z,38.78
2022-11-04T02:05:32.835Z,12.45
2022-11-04T02:06:06.046Z,11.93
2022-11-04T02:06:38.714Z,32.97
2022-11-04T02:07:11.503Z,22.90
2022-11-04T02:07:44.107Z,24.80
2022-11-04T02:08:17.329Z,14.75
2022-11-04T02:08:50.138Z,15.52
2022-11-04T02:09:23.474Z,11.65
2022-11-04T02:09:56.213Z,12.35
2022-11-04T02:10:29.537Z,10.63
2022-11-04T02:11:03.341Z,10.98
2022-11-04T02:11:53.974Z,12.60
2022-11-04T02:12:45.322Z,29.05
2022-11-04T02:13:17.752Z,29.50
2022-11-04T02:13:50.164Z,39.75
2022-11-04T02:14:22.731Z,12.35
2022-11-04T02:14:55.741Z,9.27
2022-11-04T02:15:31.280Z,9.55
2022-11-04T02:16:24.539Z,17.70
2022-11-04T02:17:02.226Z,25.52
2022-11-04T02:17:34.672Z,18.50
2022-11-04T02:18:16.049Z,16.92
2022-11-04T02:18:54.581Z,22.63
2022-11-04T02:19:41.153Z,30.23
2022-11-04T02:20:19.538Z,31.00
2022-11-04T02:21:12.253Z,10.75
2022-11-04T02:21:47.413Z,45.03
2022-11-04T02:22:28.504Z,35.50
2022-11-04T02:23:06.995Z,13.27
2022-11-04T02:23:55.885Z,21.27
2022-11-04T02:24:52.200Z,16.85
2022-11-04T02:25:39.750Z,37.92
2022-11-04T02:26:15.844Z,30.63
2022-11-04T02:26:50.956Z,46.22
2022-11-04T02:27:35.137Z,48.85
2022-11-04T02:28:33.620Z,20.27
2022-11-04T02:29:08.673Z,34.22
2022-11-04T02:29:41.042Z,11.50
2022-11-04T02:30:20.258Z,28.25
2022-11-04T02:31:11.330Z,15.45
2022-11-04T02:32:02.512Z,50.17
2022-11-04T02:32:35.020Z,76.30
2022-11-04T02:33:07.729Z,14.13
2022-11-04T02:34:06.742Z,56.97
2022-11-04T02:34:45.374Z,37.22
2022-11-04T02:35:35.680Z,72.20
2022-11-04T02:36:11.058Z,59.90
2022-11-04T02:36:46.162Z,42.10
2022-11-04T02:37:18.689Z,43.60
2022-11-04T02:38:02.769Z,10.16
2022-11-04T02:38:43.219Z,51.75
2022-11-04T02:39:34.193Z,21.55
2022-11-04T02:40:25.548Z,57.78
2022-11-04T02:41:27.276Z,53.95
2022-11-04T02:42:34.919Z,67.50
2022-11-04T02:43:39.639Z,55.83
2022-11-04T02:44:12.027Z,82.52
2022-11-04T02:44:48.323Z,79.00
2022-11-04T02:45:33.784Z,33.53
2022-11-04T02:46:13.913Z,73.38
2022-11-04T02:47:24.291Z,93.72
2022-11-04T02:48:08.264Z,88.47
2022-11-04T02:48:48.442Z,31.33
2022-11-04T02:49:52.972Z,72.02
2022-11-04T02:50:45.903Z,69.80
2022-11-04T02:51:36.963Z,79.60
2022-11-04T02:52:10.962Z,31.83
2022-11-04T02:52:50.329Z,22.73
2022-11-04T02:53:27.872Z,14.27
2022-11-04T02:54:08.557Z,27.83
2022-11-04T02:54:49.212Z,58.25
2022-11-04T02:55:41.811Z,65.32
2022-11-04T02:56:15.374Z,79.74
2022-11-04T02:56:50.485Z,25.08
2022-11-04T02:57:26.046Z,13.48
2022-11-04T02:58:00.052Z,10.65
2022-11-04T02:58:36.033Z,40.03
2022-11-04T02:59:11.369Z,12.73
2022-11-04T02:59:50.002Z,10.54
2022-11-04T03:00:22.593Z,48.75
2022-11-04T03:00:55.990Z,23.42
2022-11-04T03:01:32.226Z,12.43
2022-11-04T03:02:07.500Z,18.02
2022-11-04T03:02:45.808Z,20.42
2022-11-04T03:03:29.922Z,39.20
2022-11-04T03:04:06.671Z,63.75
2022-11-04T03:04:40.530Z,31.17
2022-11-04T03:05:14.587Z,13.35
2022-11-04T03:05:49.134Z,42.35
2022-11-04T03:06:23.441Z,9.40
2022-11-04T03:06:56.845Z,18.95
2022-11-04T03:07:32.391Z,37.92
2022-11-04T03:08:09.044Z,79.53
2022-11-04T03:08:46.524Z,58.67
2022-11-04T03:09:19.407Z,73.35
2022-11-04T03:09:53.393Z,77.43
2022-11-04T03:10:32.005Z,64.80
2022-11-04T03:11:11.679Z,88.60
2022-11-04T03:11:46.496Z,78.15
2022-11-04T03:12:21.336Z,11.60
2022-11-04T03:13:16.778Z,25.58
2022-11-04T03:13:51.744Z,45.58
2022-11-04T03:14:26.679Z,52.35
2022-11-04T03:15:02.512Z,42.10
2022-11-04T03:15:35.710Z,92.45
2022-11-04T03:16:12.315Z,38.22
2022-11-04T03:16:49.248Z,79.02
2022-11-04T03:17:27.043Z,98.13
2022-11-04T03:18:14.815Z,84.50
2022-11-04T03:18:50.304Z,87.85
2022-11-04T03:19:35.014Z,54.90
2022-11-04T03:20:10.353Z,44.40
2022-11-04T03:20:43.257Z,79.94
2022-11-04T03:21:16.978Z,76.57
2022-11-04T03:21:59.377Z,103.57
2022-11-04T03:22:36.185Z,115.75
2022-11-04T03:23:11.352Z,111.05
2022-11-04T03:23:43.861Z,97.22
2022-11-04T03:24:16.435Z,78.57
2022-11-04T03:24:49.566Z,79.22
2022-11-04T03:25:23.627Z,47.97
2022-11-04T03:25:58.515Z,33.42
2022-11-04T03:26:36.640Z,86.35
2022-11-04T03:27:14.912Z,29.02
2022-11-04T03:27:50.047Z,14.02
2022-11-04T03:28:22.474Z,63.00
2022-11-04T03:29:15.339Z,19.20
2022-11-04T03:30:10.948Z,70.72
2022-11-04T03:30:46.746Z,73.32
2022-11-04T03:31:27.664Z,92.70
2022-11-04T03:32:09.158Z,83.40
2022-11-04T03:32:41.551Z,11.75
2022-11-04T03:33:23.129Z,13.13
2022-11-04T03:33:56.211Z,69.63
2022-11-04T03:34:28.673Z,29.85
2022-11-04T03:35:01.205Z,86.38
2022-11-04T03:35:33.647Z,34.00
2022-11-04T03:36:08.856Z,31.25
2022-11-04T03:36:41.432Z,49.90
2022-11-04T03:37:13.906Z,35.72
2022-11-04T03:37:47.680Z,16.80
2022-11-04T03:38:21.213Z,26.55
2022-11-04T03:38:53.732Z,14.68
2022-11-04T03:39:26.183Z,41.65
2022-11-04T03:39:58.482Z,22.15
2022-11-04T03:40:30.854Z,57.75
2022-11-04T03:41:07.123Z,53.05
2022-11-04T03:41:47.395Z,39.92
2022-11-04T03:42:20.774Z,44.97
2022-11-04T03:43:10.236Z,11.68
2022-11-04T03:43:43.280Z,79.88
2022-11-04T03:44:15.811Z,73.28
2022-11-04T03:44:52.335Z,18.55
2022-11-04T03:45:25.180Z,75.78
2022-11-04T03:45:57.542Z,55.78
2022-11-04T03:46:30.046Z,89.18
2022-11-04T03:47:02.307Z,61.90
2022-11-04T03:47:34.981Z,41.85
2022-11-04T03:48:07.577Z,22.25
2022-11-04T03:48:40.235Z,11.43
2022-11-04T03:49:13.431Z,11.77
2022-11-04T03:49:46.397Z,11.73
2022-11-04T03:50:29.636Z,11.57
2022-11-04T03:51:02.214Z,75.18
2022-11-04T03:51:34.598Z,12.80
2022-11-04T03:52:06.945Z,23.90
2022-11-04T03:52:39.719Z,49.65
2022-11-04T03:53:13.677Z,80.95
2022-11-04T03:53:46.524Z,11.95
2022-11-04T03:54:19.209Z,31.52
2022-11-04T03:54:51.582Z,49.85
2022-11-04T03:55:46.957Z,20.58
2022-11-04T03:56:28.397Z,37.70
2022-11-04T03:57:06.738Z,71.40
2022-11-04T03:57:48.652Z,79.28
2022-11-04T03:58:23.876Z,64.82
2022-11-04T03:59:05.008Z,59.60
2022-11-04T03:59:52.596Z,74.38
2022-11-04T04:00:26.301Z,13.38
2022-11-04T04:01:03.776Z,67.32
2022-11-04T04:01:36.280Z,11.73
2022-11-04T04:02:08.676Z,42.20
2022-11-04T04:02:56.309Z,34.83
2022-11-04T04:03:32.988Z,62.88
2022-11-04T04:04:12.351Z,27.90
2022-11-04T04:04:49.386Z,63.60
2022-11-04T04:05:24.190Z,64.30
2022-11-04T04:06:20.278Z,57.80
2022-11-04T04:06:54.928Z,59.92
2022-11-04T04:07:32.134Z,69.00
2022-11-04T04:08:07.621Z,11.82
2022-11-04T04:08:45.422Z,50.67
2022-11-04T04:09:25.454Z,25.30
2022-11-04T04:10:01.837Z,83.57
2022-11-04T04:10:40.801Z,78.25
2022-11-04T04:11:29.206Z,79.15
2022-11-04T04:12:04.430Z,66.25
2022-11-04T04:12:39.032Z,75.15
2022-11-04T04:13:19.056Z,77.65
2022-11-04T04:14:00.635Z,48.60
2022-11-04T04:14:41.870Z,63.25
2022-11-04T04:15:18.931Z,84.75
2022-11-04T04:16:03.516Z,71.15
2022-11-04T04:16:42.714Z,88.28
2022-11-04T04:17:24.445Z,68.25
2022-11-04T04:17:59.342Z,59.53
2022-11-04T04:18:43.828Z,82.47
2022-11-04T04:19:24.394Z,104.60
2022-11-04T04:19:59.170Z,48.42
2022-11-04T04:20:32.930Z,86.32
2022-11-04T04:21:07.033Z,70.70
2022-11-04T04:22:02.595Z,13.57
2022-11-04T04:22:42.160Z,73.70
2022-11-04T04:23:38.600Z,77.47
2022-11-04T04:24:31.060Z,95.75
2022-11-04T04:25:24.136Z,96.28
2022-11-04T04:26:16.783Z,21.05
2022-11-04T04:27:08.223Z,89.15
2022-11-04T04:27:41.350Z,82.43
2022-11-04T04:28:15.356Z,81.07
2022-11-04T04:28:48.320Z,51.88
2022-11-04T04:29:21.108Z,53.75
2022-11-04T04:29:53.950Z,65.00
2022-11-04T04:30:26.625Z,65.25
2022-11-04T04:31:00.220Z,67.57
2022-11-04T04:31:52.771Z,67.30
2022-11-04T04:32:26.649Z,108.78
2022-11-04T04:33:07.370Z,108.53
2022-11-04T04:33:39.883Z,87.70
2022-11-04T04:34:12.607Z,75.30
2022-11-04T04:34:45.022Z,83.00
2022-11-04T04:35:36.417Z,96.32
2022-11-04T04:36:09.925Z,104.75
2022-11-04T04:36:57.461Z,67.38
2022-11-04T04:37:29.999Z,115.85
2022-11-04T04:38:23.156Z,55.67
2022-11-04T04:39:14.832Z,106.53
2022-11-04T04:40:23.689Z,86.82
2022-11-04T04:41:39.399Z,90.78
2022-11-04T04:42:30.411Z,124.07
2022-11-04T04:43:21.374Z,100.25
2022-11-04T04:44:12.472Z,121.32
2022-11-04T04:45:00.174Z,125.35
2022-11-04T04:45:34.337Z,91.57
2022-11-04T04:46:06.947Z,104.43
2022-11-04T04:46:40.281Z,93.38
2022-11-04T04:47:20.274Z,42.97
2022-11-04T04:47:52.993Z,107.75
2022-11-04T04:48:25.443Z,88.38
2022-11-04T04:49:07.555Z,56.03
2022-11-04T04:49:49.773Z,67.72
2022-11-04T04:50:22.352Z,93.80
2022-11-04T04:50:57.331Z,105.97
2022-11-04T04:51:30.219Z,81.13
2022-11-04T04:52:04.480Z,17.77
2022-11-04T04:52:38.709Z,74.35
2022-11-04T04:53:11.669Z,64.13
2022-11-04T04:53:44.323Z,109.82
2022-11-04T04:54:16.710Z,61.35
2022-11-04T04:54:49.057Z,86.45
2022-11-04T04:55:21.786Z,99.38
2022-11-04T04:55:54.339Z,94.75
2022-11-04T04:56:26.805Z,87.03
2022-11-04T04:56:59.984Z,65.10
2022-11-04T04:57:32.429Z,91.43
2022-11-04T04:58:04.886Z,110.82
2022-11-04T04:58:37.554Z,70.00
2022-11-04T04:59:09.993Z,110.70
2022-11-04T04:59:42.429Z,61.08
2022-11-04T05:00:16.519Z,79.28
2022-11-04T05:00:49.094Z,84.53
2022-11-04T05:01:21.577Z,18.33
2022-11-04T05:01:54.277Z,26.33
2022-11-04T05:02:26.942Z,74.45
2022-11-04T05:02:59.641Z,100.10
2022-11-04T05:03:32.302Z,115.28
2022-11-04T05:04:04.952Z,90.45
2022-11-04T05:04:37.338Z,87.28
2022-11-04T05:05:09.940Z,40.35
2022-11-04T05:05:42.790Z,84.38
2022-11-04T05:06:15.419Z,25.52
2022-11-04T05:06:48.059Z,20.45
2022-11-04T05:07:20.441Z,86.50
2022-11-04T05:07:52.951Z,56.30
2022-11-04T05:08:25.402Z,81.90
2022-11-04T05:08:57.868Z,87.53
2022-11-04T05:09:30.258Z,40.90
2022-11-04T05:10:02.665Z,57.17
2022-11-04T05:10:35.728Z,87.22
2022-11-04T05:11:08.156Z,35.70
2022-11-04T05:11:40.619Z,49.85
2022-11-04T05:12:13.119Z,92.75
2022-11-04T05:13:04.116Z,82.88
2022-11-04T05:13:37.158Z,36.40
2022-11-04T05:14:09.781Z,20.52
2022-11-04T05:14:42.695Z,29.98
2022-11-04T05:15:15.197Z,11.50
2022-11-04T05:15:47.714Z,38.38
2022-11-04T05:16:20.666Z,22.48
2022-11-04T05:16:53.116Z,63.45
2022-11-04T05:17:25.609Z,43.20
2022-11-04T05:18:01.174Z,23.38
2022-11-04T05:18:33.717Z,11.35
2022-11-04T05:19:06.169Z,12.90
2022-11-04T05:19:38.764Z,54.45
2022-11-04T05:20:11.899Z,12.95
2022-11-04T05:20:44.379Z,12.35
2022-11-04T05:21:17.175Z,25.10
2022-11-04T05:21:49.934Z,32.17
2022-11-04T05:22:22.381Z,11.27
2022-11-04T05:22:55.365Z,37.03
2022-11-04T05:23:27.741Z,34.47
2022-11-04T05:24:00.260Z,25.20
2022-11-04T05:24:33.034Z,61.40
2022-11-04T05:25:06.164Z,12.07
2022-11-04T05:25:40.340Z,46.40
2022-11-04T05:26:12.767Z,30.25
2022-11-04T05:26:45.171Z,34.50
2022-11-04T05:27:17.954Z,81.40
2022-11-04T05:27:50.478Z,11.82
2022-11-04T05:28:23.095Z,66.68
2022-11-04T05:28:55.448Z,55.55
2022-11-04T05:29:27.895Z,76.22
2022-11-04T05:30:00.665Z,12.27
2022-11-04T05:30:33.799Z,56.05
2022-11-04T05:31:06.762Z,31.67
2022-11-04T05:31:39.251Z,17.52
2022-11-04T05:32:11.651Z,14.63
2022-11-04T05:32:44.091Z,20.63
2022-11-04T05:33:16.569Z,26.48
2022-11-04T05:33:49.026Z,48.80
2022-11-04T05:34:21.532Z,20.88
2022-11-04T05:34:53.877Z,14.65
2022-11-04T05:35:26.446Z,20.30
2022-11-04T05:36:08.711Z,14.07
2022-11-04T05:36:41.202Z,40.55
2022-11-04T05:37:13.674Z,65.60
2022-11-04T05:37:46.170Z,63.33
2022-11-04T05:38:19.047Z,42.08
2022-11-04T05:38:52.401Z,72.97
2022-11-04T05:39:25.049Z,15.90
2022-11-04T05:39:57.495Z,39.33
2022-11-04T05:40:30.076Z,15.18
2022-11-04T05:41:02.451Z,12.40
2022-11-04T05:41:35.364Z,49.33
2022-11-04T05:42:08.290Z,66.80
2022-11-04T05:42:40.901Z,37.60
2022-11-04T05:43:13.494Z,18.65
2022-11-04T05:43:45.872Z,58.97
2022-11-04T05:44:18.223Z,25.95
2022-11-04T05:44:50.682Z,66.85
2022-11-04T05:45:23.520Z,24.65
2022-11-04T05:45:56.105Z,39.63
2022-11-04T05:46:29.159Z,70.30
2022-11-04T05:47:02.045Z,18.65
2022-11-04T05:47:34.480Z,75.42
2022-11-04T05:48:07.057Z,56.67
2022-11-04T05:48:40.680Z,16.88
2022-11-04T05:49:13.541Z,41.58
2022-11-04T05:49:45.937Z,66.25
2022-11-04T05:50:19.031Z,63.90
2022-11-04T05:50:51.639Z,37.35
2022-11-04T05:51:25.579Z,31.02
2022-11-04T05:51:57.987Z,80.00
2022-11-04T05:52:30.416Z,64.15
2022-11-04T05:53:02.914Z,46.67
2022-11-04T05:53:35.384Z,29.45
2022-11-04T05:54:07.766Z,61.03
2022-11-04T05:54:40.253Z,15.10
2022-11-04T05:55:12.883Z,61.97
2022-11-04T05:55:45.393Z,22.42
2022-11-04T05:56:18.524Z,13.73
2022-11-04T05:56:51.140Z,50.20
2022-11-04T05:57:23.851Z,105.50
2022-11-04T05:57:58.279Z,13.50
2022-11-04T05:58:31.283Z,13.68
2022-11-04T05:59:04.224Z,15.70
2022-11-04T05:59:36.754Z,35.10
2022-11-04T06:00:10.828Z,70.28
2022-11-04T06:00:43.699Z,96.63
2022-11-04T06:01:30.401Z,27.38
2022-11-04T06:02:03.498Z,77.10
2022-11-04T06:02:36.075Z,83.30
2022-11-04T06:03:12.052Z,75.88
2022-11-04T06:03:48.236Z,67.72
2022-11-04T06:04:20.807Z,106.45
2022-11-04T06:04:53.454Z,94.25
2022-11-04T06:05:26.882Z,72.93
2022-11-04T06:05:59.431Z,54.53
2022-11-04T06:06:33.710Z,17.35
2022-11-04T06:07:06.240Z,100.63
2022-11-04T06:07:38.619Z,75.13
2022-11-04T06:08:11.564Z,54.90
2022-11-04T06:08:45.389Z,92.35
2022-11-04T06:09:18.176Z,83.28
2022-11-04T06:09:50.770Z,18.85
2022-11-04T06:10:23.733Z,40.25
2022-11-04T06:10:56.359Z,48.85
2022-11-04T06:11:30.079Z,74.35
2022-11-04T06:12:02.503Z,45.30
2022-11-04T06:12:34.971Z,76.95
2022-11-04T06:13:07.972Z,46.75
2022-11-04T06:13:40.604Z,13.07
2022-11-04T06:14:18.370Z,14.68
2022-11-04T06:14:51.621Z,86.25
2022-11-04T06:15:24.364Z,37.28
2022-11-04T06:15:56.826Z,15.77
2022-11-04T06:16:29.265Z,17.25
2022-11-04T06:17:02.172Z,31.33
2022-11-04T06:17:35.099Z,47.15
2022-11-04T06:18:07.782Z,71.22
2022-11-04T06:18:40.925Z,77.00
2022-11-04T06:19:15.089Z,59.15
2022-11-04T06:19:49.033Z,78.95
2022-11-04T06:20:21.515Z,43.08
2022-11-04T06:21:16.641Z,50.42
2022-11-04T06:21:52.520Z,98.88
2022-11-04T06:22:25.266Z,100.35
2022-11-04T06:22:57.649Z,59.40
2022-11-04T06:23:30.229Z,33.90
2022-11-04T06:24:02.619Z,92.22
2022-11-04T06:24:35.656Z,84.50
2022-11-04T06:25:08.669Z,76.00
2022-11-04T06:25:41.150Z,66.90
2022-11-04T06:26:13.953Z,70.53
2022-11-04T06:26:46.689Z,80.07
2022-11-04T06:27:19.391Z,74.13
2022-11-04T06:27:51.866Z,88.28
2022-11-04T06:28:24.342Z,32.22
2022-11-04T06:28:57.469Z,62.70
2022-11-04T06:29:30.081Z,68.00
2022-11-04T06:30:02.675Z,49.55
2022-11-04T06:30:35.284Z,69.95
2022-11-04T06:31:09.590Z,52.33
2022-11-04T06:31:42.086Z,72.70
2022-11-04T06:32:15.872Z,59.47
2022-11-04T06:32:48.541Z,90.18
2022-11-04T06:33:21.419Z,58.80
2022-11-04T06:33:53.982Z,15.93
2022-11-04T06:36:00.073Z,129.23
2022-11-04T06:36:32.435Z,100.32
2022-11-04T06:37:04.844Z,62.33
2022-11-04T06:37:38.152Z,67.30
2022-11-04T06:38:10.740Z,36.50
2022-11-04T06:38:43.294Z,50.47
2022-11-04T06:39:15.600Z,44.28
2022-11-04T06:39:47.883Z,89.03
2022-11-04T06:40:20.131Z,79.45
2022-11-04T06:40:53.028Z,50.78
2022-11-04T06:41:25.687Z,96.93
2022-11-04T06:41:59.692Z,87.20
2022-11-04T06:42:34.692Z,67.80
2022-11-04T06:43:07.319Z,41.70
2022-11-04T06:43:39.953Z,64.05
2022-11-04T06:44:12.272Z,39.90
2022-11-04T06:44:45.044Z,60.75
2022-11-04T06:45:17.575Z,86.72
2022-11-04T06:45:56.488Z,14.57
2022-11-04T06:46:28.859Z,97.78
2022-11-04T06:47:01.971Z,108.25
2022-11-04T06:47:34.271Z,42.40
2022-11-04T06:48:06.830Z,69.95
2022-11-04T06:48:39.165Z,88.43
2022-11-04T06:49:15.487Z,61.28
2022-11-04T06:49:47.785Z,58.53
2022-11-04T06:50:20.070Z,43.47
2022-11-04T06:50:52.767Z,58.80
2022-11-04T06:51:25.345Z,109.80
2022-11-04T06:51:57.839Z,121.80
2022-11-04T06:52:30.221Z,89.93
2022-11-04T06:53:02.478Z,86.18
2022-11-04T06:53:34.830Z,82.45
2022-11-04T06:54:07.123Z,14.48
2022-11-04T06:54:39.393Z,40.55
2022-11-04T06:55:11.787Z,84.38
2022-11-04T06:55:44.554Z,84.28
2022-11-04T06:56:17.072Z,59.00
2022-11-04T06:56:49.553Z,83.50
2022-11-04T06:57:21.825Z,95.25
2022-11-04T06:57:54.332Z,96.80
2022-11-04T06:58:26.657Z,98.10
2022-11-04T06:58:59.105Z,77.80
2022-11-04T06:59:31.349Z,103.00
2022-11-04T07:00:04.175Z,105.05
2022-11-04T07:00:36.708Z,98.38
2022-11-04T07:01:13.700Z,77.75
2022-11-04T07:01:49.937Z,120.63
2022-11-04T07:02:22.352Z,57.65
2022-11-04T07:02:54.950Z,108.68
2022-11-04T07:03:28.146Z,122.65
2022-11-04T07:04:00.898Z,126.05
2022-11-04T07:04:33.281Z,113.20
2022-11-04T07:05:05.798Z,101.38
2022-11-04T07:05:38.177Z,85.28
2022-11-04T07:06:11.411Z,14.30
2022-11-04T07:06:44.650Z,103.85
2022-11-04T07:07:17.298Z,37.42
2022-11-04T07:07:49.790Z,15.60
2022-11-04T07:08:22.123Z,32.13
2022-11-04T07:08:56.446Z,102.13
2022-11-04T07:09:28.749Z,51.92
2022-11-04T07:10:01.260Z,89.72
2022-11-04T07:10:34.306Z,82.32
2022-11-04T07:11:06.895Z,112.18
2022-11-04T07:11:39.212Z,48.45
2022-11-04T07:12:11.457Z,50.70
2022-11-04T07:12:44.131Z,40.10
2022-11-04T07:13:18.009Z,17.13
2022-11-04T07:13:50.370Z,81.60
2022-11-04T07:14:22.699Z,106.07
2022-11-04T07:14:56.622Z,66.78
2022-11-04T07:15:28.950Z,56.53
2022-11-04T07:16:04.144Z,82.32
2022-11-04T07:16:36.665Z,69.95
2022-11-04T07:17:09.120Z,88.30
2022-11-04T07:17:42.001Z,72.00
2022-11-04T07:18:14.314Z,84.93
2022-11-04T07:18:46.884Z,82.75
2022-11-04T07:19:19.457Z,90.82
2022-11-04T07:19:51.705Z,62.83
2022-11-04T07:20:24.195Z,91.05
2022-11-04T07:20:57.727Z,76.10
2022-11-04T07:21:30.300Z,88.13
2022-11-04T07:22:02.787Z,66.85
2022-11-04T07:22:35.169Z,70.63
2022-11-04T07:23:07.692Z,104.18
2022-11-04T07:23:40.201Z,57.58
2022-11-04T07:24:12.512Z,90.80
2022-11-04T07:24:44.837Z,48.55
2022-11-04T07:25:17.137Z,85.90
2022-11-04T07:25:49.735Z,84.93
2022-11-04T07:26:22.222Z,82.82
2022-11-04T07:26:55.449Z,113.82
2022-11-04T07:27:27.778Z,58.33
2022-11-04T07:28:02.459Z,96.18
2022-11-04T07:28:35.415Z,57.95
2022-11-04T07:29:07.758Z,79.68
2022-11-04T07:29:40.104Z,17.30
2022-11-04T07:30:12.763Z,17.55
2022-11-04T07:30:45.212Z,97.28
2022-11-04T07:31:18.394Z,78.82
2022-11-04T07:31:50.674Z,79.43
2022-11-04T07:32:23.211Z,66.32
2022-11-04T07:32:55.608Z,125.55
2022-11-04T07:33:28.162Z,18.23
2022-11-04T07:34:00.793Z,93.35
2022-11-04T07:34:33.071Z,63.85
2022-11-04T07:35:05.836Z,43.47
2022-11-04T07:35:39.133Z,73.70
2022-11-04T07:36:12.412Z,99.43
2022-11-04T07:36:44.687Z,48.13
2022-11-04T07:37:17.181Z,97.97
2022-11-04T07:37:49.615Z,76.00
2022-11-04T07:38:22.474Z,75.28
2022-11-04T07:38:54.993Z,55.80
2022-11-04T07:39:27.308Z,96.50
2022-11-04T07:39:59.608Z,90.15
2022-11-04T07:40:34.644Z,67.13
2022-11-04T07:41:07.467Z,42.50
2022-11-04T07:41:39.909Z,80.20
2022-11-04T07:42:12.390Z,18.20